Saint Paul, Minnesota
Current Conditions -  °F | °C
As of 9:53 PM on Sunday 21 Dec 2014 (Local Time) from KSTP Reporting Station
Light Rain Light Rain  
Wind Chill: 30°   Ceiling: 1100
Heat Index: 37°   Visibility: 7mi
Dew Point: 36°   Wind: 10mph
Humidity: 96%   Direction: 150°SSE
Pressure: 29.75"   Gusts: NA
Location:  44.93°N, 93.07°W
Report Text: KSTP 220353Z AUTO 15009KT 7SM -RA OVC011 03/02 A2975 RMK AO2 CIG 009V013 SLP078 P0003 T00280022
Loading
Personal Weather Stations






























Interactive Weather Map New forecast layout! Learn more

10-Day Weather Forecast

Advertisements
Track Severe Weather on mobile